createdAt,value
2017-11-20T00:00:06.328Z,6.74
2017-11-20T00:01:06.313Z,6.79
2017-11-20T00:02:06.288Z,6.82
2017-11-20T00:03:06.269Z,6.75
2017-11-20T00:04:06.855Z,6.82
2017-11-20T00:05:06.225Z,6.81
2017-11-20T00:06:06.224Z,6.79
2017-11-20T00:07:06.192Z,6.83
2017-11-20T00:08:06.167Z,6.96
2017-11-20T00:09:06.156Z,6.92
2017-11-20T00:10:06.130Z,6.96
2017-11-20T00:11:06.108Z,6.93
2017-11-20T00:12:06.147Z,6.93
2017-11-20T00:13:06.066Z,6.92
2017-11-20T00:14:06.115Z,6.93
2017-11-20T00:15:06.027Z,6.93
2017-11-20T00:16:06.205Z,6.91
2017-11-20T00:17:05.982Z,6.96
2017-11-20T00:18:06.068Z,6.96
2017-11-20T00:19:05.941Z,6.79
2017-11-20T00:20:05.985Z,6.78
2017-11-20T00:21:05.913Z,6.75
2017-11-20T00:22:05.990Z,6.68
2017-11-20T00:23:05.858Z,6.79
2017-11-20T00:24:05.853Z,6.82
2017-11-20T00:25:05.844Z,6.82
2017-11-20T00:26:05.804Z,6.79
2017-11-20T00:27:05.779Z,6.81
2017-11-20T00:28:05.807Z,6.82
2017-11-20T00:29:05.746Z,6.75
2017-11-20T00:30:05.820Z,6.81
2017-11-20T00:31:05.697Z,6.79
2017-11-20T00:32:05.690Z,6.73
2017-11-20T00:33:05.656Z,6.70
2017-11-20T00:34:05.686Z,6.67
2017-11-20T00:35:05.619Z,6.68
2017-11-20T00:36:05.641Z,6.70
2017-11-20T00:37:05.592Z,6.67
2017-11-20T00:38:05.561Z,6.68
2017-11-20T00:39:05.541Z,6.67
2017-11-20T00:40:05.618Z,6.61
2017-11-20T00:41:05.504Z,6.65
2017-11-20T00:42:05.566Z,6.55
2017-11-20T00:43:05.456Z,6.52
2017-11-20T00:44:05.533Z,6.52
2017-11-20T00:45:05.422Z,6.55
2017-11-20T00:46:05.405Z,6.56
2017-11-20T00:47:05.418Z,6.52
2017-11-20T00:48:05.442Z,6.55
2017-11-20T00:49:05.345Z,6.52
2017-11-20T00:50:05.311Z,6.55
2017-11-20T00:51:05.286Z,6.56
2017-11-20T00:52:05.462Z,6.55
2017-11-20T00:53:05.252Z,6.53
2017-11-20T00:54:05.264Z,6.57
2017-11-20T00:55:05.208Z,6.56
2017-11-20T00:56:05.252Z,6.61
2017-11-20T00:57:05.363Z,6.56
2017-11-20T00:58:05.152Z,6.53
2017-11-20T00:59:05.128Z,6.57
2017-11-20T01:00:17.860Z,6.56
2017-11-20T01:01:05.094Z,6.53
2017-11-20T01:02:05.073Z,6.43
2017-11-20T01:03:05.047Z,6.47
2017-11-20T01:04:05.029Z,6.40
2017-11-20T01:05:05.013Z,6.49
2017-11-20T01:06:04.982Z,6.52
2017-11-20T01:07:04.962Z,6.50
2017-11-20T01:08:04.946Z,6.53
2017-11-20T01:09:04.953Z,6.55
2017-11-20T01:10:04.905Z,6.42
2017-11-20T01:11:04.888Z,6.49
2017-11-20T01:12:04.856Z,6.38
2017-11-20T01:13:04.836Z,6.56
2017-11-20T01:14:04.817Z,6.53
2017-11-20T01:15:04.796Z,6.57
2017-11-20T01:16:04.769Z,6.55
2017-11-20T01:17:04.756Z,6.55
2017-11-20T01:18:04.734Z,6.53
2017-11-20T01:19:04.710Z,6.60
2017-11-20T01:20:04.687Z,6.57
2017-11-20T01:21:04.664Z,6.56
2017-11-20T01:22:04.642Z,6.56
2017-11-20T01:23:04.625Z,6.60
2017-11-20T01:24:04.605Z,6.57
2017-11-20T01:25:04.584Z,6.57
2017-11-20T01:26:04.565Z,6.47
2017-11-20T01:27:04.552Z,6.45
2017-11-20T01:28:04.523Z,6.38
2017-11-20T01:29:04.503Z,6.43
2017-11-20T01:30:04.483Z,6.42
2017-11-20T01:31:04.467Z,6.43
2017-11-20T01:32:04.435Z,6.40
2017-11-20T01:33:04.426Z,6.35
2017-11-20T01:34:04.397Z,6.43
2017-11-20T01:35:04.381Z,6.35
2017-11-20T01:36:04.356Z,6.35
2017-11-20T01:37:04.333Z,6.35
2017-11-20T01:38:04.321Z,6.31
2017-11-20T01:39:04.294Z,6.25
2017-11-20T01:40:04.272Z,6.25
2017-11-20T01:41:04.254Z,6.18
2017-11-20T01:42:04.244Z,6.21
2017-11-20T01:43:04.223Z,6.18
2017-11-20T01:44:04.191Z,6.28
2017-11-20T01:45:04.170Z,6.31
2017-11-20T01:46:04.163Z,6.35
2017-11-20T01:47:04.138Z,6.35
2017-11-20T01:48:04.104Z,6.40
2017-11-20T01:49:04.093Z,6.40
2017-11-20T01:50:04.065Z,6.40
2017-11-20T01:51:04.048Z,6.31
2017-11-20T01:52:04.050Z,6.34
2017-11-20T01:53:04.003Z,6.34
2017-11-20T01:54:03.982Z,6.38
2017-11-20T01:55:03.971Z,6.40
2017-11-20T01:56:03.944Z,6.37
2017-11-20T01:57:03.920Z,6.43
2017-11-20T01:58:03.903Z,6.45
2017-11-20T01:59:03.882Z,6.55
2017-11-20T02:00:03.861Z,6.52
2017-11-20T02:01:03.843Z,6.49
2017-11-20T02:02:03.822Z,6.57
2017-11-20T02:03:03.802Z,6.52
2017-11-20T02:04:03.779Z,6.50
2017-11-20T02:05:03.759Z,6.55
2017-11-20T02:06:03.745Z,6.53
2017-11-20T02:07:03.717Z,6.50
2017-11-20T02:08:03.700Z,6.60
2017-11-20T02:09:03.683Z,6.43
2017-11-20T02:10:03.663Z,6.46
2017-11-20T02:11:03.660Z,6.35
2017-11-20T02:12:03.620Z,6.46
2017-11-20T02:13:03.602Z,6.42
2017-11-20T02:14:03.573Z,6.45
2017-11-20T02:15:03.553Z,6.34
2017-11-20T02:16:03.534Z,6.30
2017-11-20T02:17:03.514Z,6.42
2017-11-20T02:18:03.493Z,6.42
2017-11-20T02:19:03.475Z,6.49
2017-11-20T02:20:03.454Z,6.55
2017-11-20T02:21:03.437Z,6.50
2017-11-20T02:22:03.413Z,6.37
2017-11-20T02:23:03.399Z,6.40
2017-11-20T02:24:03.366Z,6.35
2017-11-20T02:25:03.363Z,6.31
2017-11-20T02:26:03.323Z,6.35
2017-11-20T02:27:03.303Z,6.32
2017-11-20T02:28:03.293Z,6.34
2017-11-20T02:29:03.272Z,6.47
2017-11-20T02:30:03.245Z,6.46
2017-11-20T02:31:03.226Z,6.46
2017-11-20T02:32:03.203Z,6.49
2017-11-20T02:33:03.182Z,6.45
2017-11-20T02:34:03.159Z,6.49
2017-11-20T02:35:03.142Z,6.35
2017-11-20T02:36:03.115Z,6.35
2017-11-20T02:37:03.095Z,6.35
2017-11-20T02:38:03.081Z,6.25
2017-11-20T02:39:03.057Z,6.28
2017-11-20T02:40:03.032Z,6.32
2017-11-20T02:41:03.013Z,6.34
2017-11-20T02:42:02.995Z,6.35
2017-11-20T02:43:02.974Z,6.35
2017-11-20T02:44:02.958Z,6.45
2017-11-20T02:45:02.934Z,6.34
2017-11-20T02:46:02.914Z,6.38
2017-11-20T02:47:02.888Z,6.43
2017-11-20T02:48:02.875Z,6.42
2017-11-20T02:49:02.849Z,6.40
2017-11-20T02:50:02.835Z,6.45
2017-11-20T02:51:02.805Z,6.34
2017-11-20T02:52:02.795Z,6.34
2017-11-20T02:53:02.772Z,6.31
2017-11-20T02:54:02.749Z,6.30
2017-11-20T02:55:02.725Z,6.30
2017-11-20T02:56:02.702Z,6.27
2017-11-20T02:57:02.685Z,6.31
2017-11-20T02:58:02.672Z,6.35
2017-11-20T02:59:02.642Z,6.40
2017-11-20T03:00:02.623Z,6.42
2017-11-20T03:01:02.604Z,6.25
2017-11-20T03:02:02.583Z,6.25
2017-11-20T03:03:02.560Z,6.32
2017-11-20T03:04:02.541Z,6.28
2017-11-20T03:05:02.523Z,6.30
2017-11-20T03:06:02.499Z,6.21
2017-11-20T03:07:02.478Z,6.16
2017-11-20T03:08:02.456Z,6.18
2017-11-20T03:09:02.434Z,6.18
2017-11-20T03:10:02.416Z,6.16
2017-11-20T03:11:02.396Z,6.12
2017-11-20T03:12:02.369Z,6.16
2017-11-20T03:13:02.351Z,6.21
2017-11-20T03:14:02.332Z,6.27
2017-11-20T03:15:02.315Z,6.25
2017-11-20T03:16:02.293Z,6.24
2017-11-20T03:17:02.268Z,6.25
2017-11-20T03:18:02.252Z,6.24
2017-11-20T03:19:02.224Z,6.21
2017-11-20T03:20:02.204Z,6.21
2017-11-20T03:21:02.189Z,6.24
2017-11-20T03:22:02.165Z,6.27
2017-11-20T03:23:02.151Z,6.28
2017-11-20T03:24:02.120Z,6.30
2017-11-20T03:25:02.101Z,6.25
2017-11-20T03:26:02.085Z,6.27
2017-11-20T03:27:02.062Z,6.24
2017-11-20T03:28:02.046Z,6.19
2017-11-20T03:29:02.022Z,6.13
2017-11-20T03:30:02.000Z,6.21
2017-11-20T03:31:01.979Z,6.25
2017-11-20T03:32:01.953Z,6.21
2017-11-20T03:33:01.938Z,6.19
2017-11-20T03:34:01.913Z,6.30
2017-11-20T03:35:01.893Z,6.27
2017-11-20T03:36:01.871Z,6.25
2017-11-20T03:37:01.855Z,6.32
2017-11-20T03:38:01.834Z,6.35
2017-11-20T03:39:01.811Z,6.43
2017-11-20T03:40:01.787Z,6.45
2017-11-20T03:41:01.769Z,6.43
2017-11-20T03:42:01.746Z,6.43
2017-11-20T03:43:01.725Z,6.34
2017-11-20T03:44:01.715Z,6.45
2017-11-20T03:45:01.681Z,6.37
2017-11-20T03:46:01.663Z,6.43
2017-11-20T03:47:01.652Z,6.37
2017-11-20T03:48:01.619Z,6.31
2017-11-20T03:49:01.599Z,6.30
2017-11-20T03:50:01.580Z,6.24
2017-11-20T03:51:01.557Z,6.19
2017-11-20T03:52:01.546Z,6.27
2017-11-20T03:53:01.518Z,6.28
2017-11-20T03:54:01.499Z,6.18
2017-11-20T03:55:01.474Z,6.24
2017-11-20T03:56:01.454Z,6.25
2017-11-20T03:57:01.431Z,6.21
2017-11-20T03:58:01.414Z,6.24
2017-11-20T03:59:01.394Z,6.30
2017-11-20T04:00:01.373Z,6.25
2017-11-20T04:01:01.352Z,6.32
2017-11-20T04:02:01.326Z,6.28
2017-11-20T04:03:01.314Z,6.25
2017-11-20T04:04:01.286Z,6.30
2017-11-20T04:05:01.268Z,6.30
2017-11-20T04:06:01.245Z,6.31
2017-11-20T04:07:01.224Z,6.27
2017-11-20T04:08:01.205Z,6.15
2017-11-20T04:09:01.181Z,6.21
2017-11-20T04:10:01.168Z,6.25
2017-11-20T04:11:01.144Z,6.21
2017-11-20T04:12:01.125Z,6.13
2017-11-20T04:13:01.099Z,6.21
2017-11-20T04:14:01.087Z,6.25
2017-11-20T04:15:01.065Z,6.19
2017-11-20T04:16:01.036Z,6.34
2017-11-20T04:17:01.014Z,6.35
2017-11-20T04:18:00.995Z,6.35
2017-11-20T04:19:00.973Z,6.19
2017-11-20T04:20:00.956Z,6.25
2017-11-20T04:21:00.936Z,6.18
2017-11-20T04:22:00.909Z,6.18
2017-11-20T04:23:00.905Z,6.24
2017-11-20T04:24:00.873Z,6.16
2017-11-20T04:25:00.847Z,6.24
2017-11-20T04:26:00.833Z,6.09
2017-11-20T04:27:00.814Z,6.12
2017-11-20T04:28:00.784Z,6.21
2017-11-20T04:29:00.763Z,6.24
2017-11-20T04:30:00.762Z,6.19
2017-11-20T04:31:00.724Z,6.24
2017-11-20T04:32:00.701Z,6.21
2017-11-20T04:33:00.684Z,6.19
2017-11-20T04:34:00.663Z,6.15
2017-11-20T04:35:00.643Z,6.16
2017-11-20T04:36:00.624Z,6.24
2017-11-20T04:37:00.594Z,6.27
2017-11-20T04:38:00.579Z,6.24
2017-11-20T04:39:00.603Z,6.27
2017-11-20T04:40:00.541Z,6.31
2017-11-20T04:41:00.514Z,6.34
2017-11-20T04:42:00.493Z,6.40
2017-11-20T04:43:00.524Z,6.25
2017-11-20T04:44:00.455Z,6.30
2017-11-20T04:45:00.489Z,6.35
2017-11-20T04:46:00.415Z,6.42
2017-11-20T04:47:00.387Z,6.42
2017-11-20T04:48:00.363Z,6.40
2017-11-20T04:49:00.394Z,6.46
2017-11-20T04:50:00.327Z,6.42
2017-11-20T04:51:00.303Z,6.42
2017-11-20T04:52:00.283Z,6.49
2017-11-20T04:53:00.341Z,6.40
2017-11-20T04:54:00.241Z,6.53
2017-11-20T04:55:00.272Z,6.52
2017-11-20T04:56:00.198Z,6.35
2017-11-20T04:57:00.184Z,6.42
2017-11-20T04:58:00.159Z,6.34
2017-11-20T04:59:00.140Z,6.35
2017-11-20T05:00:00.119Z,6.34
2017-11-20T05:01:00.143Z,6.35
2017-11-20T05:02:00.074Z,6.34
2017-11-20T05:03:00.055Z,6.37
2017-11-20T05:04:00.032Z,6.35
2017-11-20T05:05:00.114Z,6.40
2017-11-20T05:05:59.996Z,6.40
2017-11-20T05:07:00.024Z,6.42
2017-11-20T05:07:59.955Z,6.46
2017-11-20T05:08:59.986Z,6.45
2017-11-20T05:09:59.909Z,6.46
2017-11-20T05:10:59.895Z,6.42
2017-11-20T05:11:59.864Z,6.35
2017-11-20T05:12:59.851Z,6.35
2017-11-20T05:13:59.827Z,6.35
2017-11-20T05:14:59.854Z,6.38
2017-11-20T05:15:59.783Z,6.40
2017-11-20T05:16:59.865Z,6.45
2017-11-20T05:17:59.742Z,6.46
2017-11-20T05:18:59.781Z,6.45
2017-11-20T05:19:59.696Z,6.37
2017-11-20T05:20:59.729Z,6.35
2017-11-20T05:21:59.664Z,6.42
2017-11-20T05:22:59.647Z,6.35
2017-11-20T05:23:59.614Z,6.40
2017-11-20T05:24:59.593Z,6.52
2017-11-20T05:25:59.574Z,6.42
2017-11-20T05:26:59.551Z,6.49
2017-11-20T05:27:59.542Z,6.43
2017-11-20T05:28:59.516Z,6.37
2017-11-20T05:29:59.494Z,6.31
2017-11-20T05:30:59.475Z,6.35
2017-11-20T05:31:59.460Z,6.37
2017-11-20T05:32:59.427Z,6.31
2017-11-20T05:33:59.422Z,6.34
2017-11-20T05:34:59.392Z,6.38
2017-11-20T05:35:59.364Z,6.37
2017-11-20T05:36:59.345Z,6.34
2017-11-20T05:37:59.326Z,6.35
2017-11-20T05:38:59.314Z,6.31
2017-11-20T05:39:59.285Z,6.32
2017-11-20T05:40:59.264Z,6.28
2017-11-20T05:41:59.248Z,6.24
2017-11-20T05:42:59.234Z,6.19
2017-11-20T05:43:59.204Z,6.28
2017-11-20T05:44:59.185Z,6.28
2017-11-20T05:45:59.173Z,6.24
2017-11-20T05:46:59.143Z,6.16
2017-11-20T05:47:59.125Z,6.12
2017-11-20T05:48:59.103Z,6.18
2017-11-20T05:49:59.073Z,6.27
2017-11-20T05:50:59.053Z,6.25
2017-11-20T05:51:59.037Z,6.25
2017-11-20T05:52:59.015Z,6.24
2017-11-20T05:53:58.993Z,6.32
2017-11-20T05:54:58.979Z,6.27
2017-11-20T05:55:58.952Z,6.24
2017-11-20T05:56:58.940Z,6.28
2017-11-20T05:57:58.907Z,6.25
2017-11-20T05:58:58.889Z,6.24
2017-11-20T05:59:58.868Z,6.16
2017-11-20T06:00:58.845Z,6.24
2017-11-20T06:01:58.830Z,6.25
2017-11-20T06:02:58.804Z,6.27
2017-11-20T06:03:58.782Z,6.09
2017-11-20T06:04:58.764Z,6.12
2017-11-20T06:05:58.743Z,6.00
2017-11-20T06:06:58.725Z,6.06
2017-11-20T06:07:58.701Z,6.11
2017-11-20T06:08:58.684Z,6.13
2017-11-20T06:09:58.669Z,6.18
2017-11-20T06:10:58.637Z,6.21
2017-11-20T06:11:58.613Z,6.21
2017-11-20T06:12:58.594Z,6.28
2017-11-20T06:13:58.585Z,6.25
2017-11-20T06:14:58.556Z,6.27
2017-11-20T06:15:58.534Z,6.28
2017-11-20T06:16:58.603Z,6.28
2017-11-20T06:17:58.495Z,6.25
2017-11-20T06:18:58.474Z,6.25
2017-11-20T06:19:58.445Z,6.25
2017-11-20T06:20:58.429Z,6.16
2017-11-20T06:21:58.403Z,6.15
2017-11-20T06:22:58.456Z,6.12
2017-11-20T06:23:58.368Z,6.09
2017-11-20T06:24:58.352Z,6.02
2017-11-20T06:25:58.320Z,6.02
2017-11-20T06:26:58.299Z,6.06
2017-11-20T06:27:58.277Z,6.03
2017-11-20T06:28:58.257Z,6.06
2017-11-20T06:29:58.236Z,5.98
2017-11-20T06:30:58.219Z,6.02
2017-11-20T06:31:58.193Z,6.00
2017-11-20T06:32:58.173Z,5.98
2017-11-20T06:33:58.150Z,6.05
2017-11-20T06:34:58.131Z,5.95
2017-11-20T06:35:58.114Z,6.06
2017-11-20T06:36:58.087Z,6.00
2017-11-20T06:37:58.073Z,6.02
2017-11-20T06:38:58.046Z,6.15
2017-11-20T06:39:58.034Z,6.16
2017-11-20T06:40:58.004Z,6.12
2017-11-20T06:41:57.983Z,6.06
2017-11-20T06:42:57.964Z,6.11
2017-11-20T06:43:57.944Z,6.12
2017-11-20T06:44:57.924Z,6.18
2017-11-20T06:45:57.906Z,6.27
2017-11-20T06:46:57.879Z,6.21
2017-11-20T06:47:57.871Z,6.15
2017-11-20T06:48:57.836Z,6.24
2017-11-20T06:49:57.818Z,6.27
2017-11-20T06:50:57.796Z,6.24
2017-11-20T06:51:57.774Z,6.25
2017-11-20T06:52:57.764Z,6.15
2017-11-20T06:53:57.734Z,6.16
2017-11-20T06:54:57.715Z,6.11
2017-11-20T06:55:57.690Z,6.16
2017-11-20T06:56:57.678Z,6.18
2017-11-20T06:57:57.652Z,6.24
2017-11-20T06:58:57.632Z,6.05
2017-11-20T06:59:57.605Z,6.05
2017-11-20T07:00:57.585Z,5.93
2017-11-20T07:01:57.573Z,6.00
2017-11-20T07:02:57.548Z,6.12
2017-11-20T07:03:57.520Z,6.00
2017-11-20T07:04:57.508Z,6.06
2017-11-20T07:05:57.486Z,6.03
2017-11-20T07:06:57.466Z,6.06
2017-11-20T07:07:57.439Z,6.12
2017-11-20T07:08:57.424Z,6.13
2017-11-20T07:09:57.399Z,6.24
2017-11-20T07:10:57.376Z,6.18
2017-11-20T07:11:57.354Z,6.24
2017-11-20T07:12:57.344Z,6.25
2017-11-20T07:13:57.310Z,6.19
2017-11-20T07:14:57.289Z,6.28
2017-11-20T07:15:57.271Z,6.27
2017-11-20T07:16:57.246Z,6.19
2017-11-20T07:17:57.226Z,6.28
2017-11-20T07:18:57.217Z,6.32
2017-11-20T07:19:57.184Z,6.38
2017-11-20T07:20:57.164Z,6.21
2017-11-20T07:21:57.143Z,6.24
2017-11-20T07:22:57.120Z,6.06
2017-11-20T07:23:57.105Z,6.15
2017-11-20T07:24:57.083Z,6.13
2017-11-20T07:25:57.065Z,6.16
2017-11-20T07:26:57.043Z,6.21
2017-11-20T07:27:57.019Z,6.16
2017-11-20T07:28:57.000Z,6.16
2017-11-20T07:29:56.979Z,6.13
2017-11-20T07:30:56.954Z,6.19
2017-11-20T07:31:56.934Z,6.25
2017-11-20T07:32:56.924Z,6.24
2017-11-20T07:33:56.893Z,6.19
2017-11-20T07:34:56.875Z,6.24
2017-11-20T07:35:56.858Z,6.27
2017-11-20T07:36:56.829Z,6.18
2017-11-20T07:37:56.806Z,6.25
2017-11-20T07:38:56.789Z,6.25
2017-11-20T07:39:56.764Z,6.21
2017-11-20T07:40:56.742Z,6.13
2017-11-20T07:41:56.724Z,6.06
2017-11-20T07:42:56.702Z,6.09
2017-11-20T07:43:56.682Z,6.12
2017-11-20T07:44:56.662Z,6.19
2017-11-20T07:45:56.643Z,6.25
2017-11-20T07:46:56.624Z,6.15
2017-11-20T07:47:56.604Z,6.24
2017-11-20T07:48:56.579Z,6.19
2017-11-20T07:49:56.608Z,6.27
2017-11-20T07:50:56.546Z,6.21
2017-11-20T07:51:56.523Z,6.09
2017-11-20T07:52:56.508Z,6.06
2017-11-20T07:53:56.486Z,6.03
2017-11-20T07:54:56.459Z,6.03
2017-11-20T07:55:56.445Z,5.95
2017-11-20T07:56:56.422Z,5.95
2017-11-20T07:57:56.407Z,5.98
2017-11-20T07:58:56.382Z,5.93
2017-11-20T07:59:56.385Z,5.95
2017-11-20T08:00:56.341Z,5.98
2017-11-20T08:01:56.319Z,5.93
2017-11-20T08:02:56.297Z,5.95
2017-11-20T08:03:56.280Z,5.95
2017-11-20T08:04:56.573Z,6.03
2017-11-20T08:05:56.234Z,6.05
2017-11-20T08:06:56.219Z,6.02
2017-11-20T08:07:56.194Z,6.03
2017-11-20T08:08:56.172Z,6.02
2017-11-20T08:09:56.169Z,6.06
2017-11-20T08:10:59.201Z,6.16
2017-11-20T08:11:56.109Z,5.98
2017-11-20T08:12:56.085Z,6.05
2017-11-20T08:13:56.072Z,6.06
2017-11-20T08:14:56.042Z,6.00
2017-11-20T08:15:56.026Z,5.90
2017-11-20T08:16:56.005Z,5.98
2017-11-20T08:17:55.976Z,6.03
2017-11-20T08:18:55.957Z,5.94
2017-11-20T08:19:55.935Z,6.03
2017-11-20T08:20:55.915Z,6.11
2017-11-20T08:21:55.894Z,6.03
2017-11-20T08:22:55.870Z,5.98
2017-11-20T08:23:55.854Z,5.90
2017-11-20T08:24:55.822Z,5.95
2017-11-20T08:25:55.801Z,6.00
2017-11-20T08:26:55.783Z,6.00
2017-11-20T08:27:55.760Z,6.00
2017-11-20T08:28:55.743Z,5.90
2017-11-20T08:29:55.732Z,5.98
2017-11-20T08:30:55.708Z,6.06
2017-11-20T08:31:55.686Z,5.93
2017-11-20T08:32:55.657Z,5.93
2017-11-20T08:33:55.644Z,5.88
2017-11-20T08:34:55.626Z,5.93
2017-11-20T08:35:55.594Z,5.95
2017-11-20T08:36:55.577Z,5.94
2017-11-20T08:37:55.553Z,5.97
2017-11-20T08:38:55.535Z,5.91
2017-11-20T08:39:55.513Z,5.87
2017-11-20T08:40:55.495Z,5.98
2017-11-20T08:41:55.470Z,6.03
2017-11-20T08:42:55.452Z,5.94
2017-11-20T08:43:55.431Z,6.02
2017-11-20T08:44:55.410Z,5.93
2017-11-20T08:45:55.383Z,5.84
2017-11-20T08:46:55.369Z,5.90
2017-11-20T08:47:55.346Z,5.73
2017-11-20T08:48:55.322Z,5.67
2017-11-20T08:49:55.550Z,5.73
2017-11-20T08:50:55.292Z,5.75
2017-11-20T08:51:55.258Z,5.85
2017-11-20T08:52:55.241Z,5.85
2017-11-20T08:53:55.219Z,5.72
2017-11-20T08:54:55.198Z,5.75
2017-11-20T08:55:55.175Z,5.75
2017-11-20T08:56:55.164Z,5.82
2017-11-20T08:57:55.134Z,5.85
2017-11-20T08:58:55.125Z,5.77
2017-11-20T08:59:55.093Z,5.77
2017-11-20T09:00:55.073Z,5.65
2017-11-20T09:01:55.060Z,5.66
2017-11-20T09:02:55.032Z,5.61
2017-11-20T09:03:55.012Z,5.58
2017-11-20T09:04:54.984Z,5.54
2017-11-20T09:05:54.965Z,5.54
2017-11-20T09:06:54.942Z,5.62
2017-11-20T09:07:54.971Z,5.62
2017-11-20T09:08:54.903Z,5.61
2017-11-20T09:09:54.877Z,5.65
2017-11-20T09:10:54.855Z,5.70
2017-11-20T09:11:54.838Z,5.65
2017-11-20T09:12:54.828Z,5.62
2017-11-20T09:13:54.796Z,5.75
2017-11-20T09:14:54.777Z,5.72
2017-11-20T09:15:54.754Z,5.66
2017-11-20T09:16:54.732Z,5.72
2017-11-20T09:17:54.723Z,5.77
2017-11-20T09:18:54.695Z,5.75
2017-11-20T09:19:54.678Z,5.75
2017-11-20T09:20:54.653Z,5.79
2017-11-20T09:21:54.979Z,5.80
2017-11-20T09:22:54.607Z,5.76
2017-11-20T09:23:54.586Z,5.73
2017-11-20T09:24:54.565Z,6.00
2017-11-20T09:25:54.549Z,6.25
2017-11-20T09:26:54.525Z,6.57
2017-11-20T09:27:54.503Z,6.89
2017-11-20T09:28:54.475Z,6.82
2017-11-20T09:29:54.475Z,6.93
2017-11-20T09:30:54.433Z,6.85
2017-11-20T09:31:54.416Z,6.73
2017-11-20T09:32:54.395Z,6.73
2017-11-20T09:33:54.480Z,6.45
2017-11-20T09:34:54.352Z,6.08
2017-11-20T09:35:54.326Z,6.02
2017-11-20T09:36:54.304Z,5.87
2017-11-20T09:37:54.285Z,5.88
2017-11-20T09:38:54.263Z,5.84
2017-11-20T09:39:54.341Z,5.91
2017-11-20T09:40:54.220Z,5.91
2017-11-20T09:41:54.314Z,5.82
2017-11-20T09:42:54.184Z,5.76
2017-11-20T09:43:54.165Z,5.85
2017-11-20T09:44:54.171Z,5.57
2017-11-20T09:45:54.123Z,5.70
2017-11-20T09:46:54.105Z,5.76
2017-11-20T09:47:54.173Z,5.75
2017-11-20T09:48:54.050Z,5.75
2017-11-20T09:49:54.035Z,5.79
2017-11-20T09:50:54.025Z,5.75
2017-11-20T09:51:53.988Z,5.77
2017-11-20T09:52:53.986Z,5.75
2017-11-20T09:53:53.958Z,5.82
2017-11-20T09:54:53.925Z,5.73
2017-11-20T09:55:53.904Z,5.76
2017-11-20T09:56:53.885Z,5.75
2017-11-20T09:57:53.863Z,5.75
2017-11-20T09:58:53.839Z,5.77
2017-11-20T09:59:53.826Z,5.73
2017-11-20T10:00:53.815Z,5.65
2017-11-20T10:01:53.783Z,5.61
2017-11-20T10:02:53.758Z,5.59
2017-11-20T10:03:53.734Z,5.59
2017-11-20T10:04:53.716Z,5.41
2017-11-20T10:05:53.693Z,5.48
2017-11-20T10:06:53.673Z,5.57
2017-11-20T10:07:53.652Z,5.57
2017-11-20T10:08:53.631Z,5.55
2017-11-20T10:09:53.610Z,5.50
2017-11-20T10:10:53.598Z,5.51
2017-11-20T10:11:53.566Z,5.48
2017-11-20T10:12:53.545Z,5.55
2017-11-20T10:13:53.522Z,5.58
2017-11-20T10:14:53.507Z,5.54
2017-11-20T10:15:53.554Z,5.57
2017-11-20T10:16:53.467Z,5.62
2017-11-20T10:17:53.440Z,5.62
2017-11-20T10:18:53.417Z,5.57
2017-11-20T10:19:53.396Z,5.54
2017-11-20T10:20:53.374Z,5.54
2017-11-20T10:21:53.363Z,5.65
2017-11-20T10:22:53.333Z,5.59
2017-11-20T10:23:53.316Z,5.58
2017-11-20T10:24:53.292Z,5.58
2017-11-20T10:25:53.266Z,5.62
2017-11-20T10:26:53.255Z,5.58
2017-11-20T10:27:53.235Z,5.69
2017-11-20T10:28:53.217Z,5.73
2017-11-20T10:29:53.190Z,5.75
2017-11-20T10:30:53.163Z,5.59
2017-11-20T10:31:53.142Z,5.62
2017-11-20T10:32:53.123Z,5.66
2017-11-20T10:33:53.101Z,5.58
2017-11-20T10:34:53.099Z,5.54
2017-11-20T10:35:53.072Z,5.47
2017-11-20T10:36:53.039Z,5.44
2017-11-20T10:37:53.015Z,5.52
2017-11-20T10:38:52.995Z,5.57
2017-11-20T10:39:52.973Z,5.61
2017-11-20T10:40:52.960Z,5.72
2017-11-20T10:41:52.932Z,5.70
2017-11-20T10:42:52.913Z,5.67
2017-11-20T10:43:52.894Z,5.73
2017-11-20T10:44:52.870Z,5.62
2017-11-20T10:45:52.842Z,5.72
2017-11-20T10:46:52.824Z,5.62
2017-11-20T10:47:52.808Z,5.59
2017-11-20T10:48:52.780Z,5.58
2017-11-20T10:49:52.767Z,5.54
2017-11-20T10:50:52.741Z,5.52
2017-11-20T10:51:52.718Z,5.39
2017-11-20T10:52:52.710Z,5.50
2017-11-20T10:53:52.688Z,5.44
2017-11-20T10:54:52.664Z,5.34
2017-11-20T10:55:52.646Z,5.36
2017-11-20T10:56:52.617Z,5.32
2017-11-20T10:57:52.594Z,5.36
2017-11-20T10:58:52.571Z,5.33
2017-11-20T10:59:52.549Z,5.27
2017-11-20T11:00:52.526Z,5.29
2017-11-20T11:01:52.503Z,5.24
2017-11-20T11:02:52.484Z,5.27
2017-11-20T11:03:52.472Z,5.24
2017-11-20T11:04:52.439Z,5.27
2017-11-20T11:05:52.423Z,5.47
2017-11-20T11:06:52.397Z,5.40
2017-11-20T11:07:52.373Z,5.30
2017-11-20T11:08:52.353Z,5.25
2017-11-20T11:09:52.332Z,5.24
2017-11-20T11:10:52.313Z,5.34
2017-11-20T11:11:52.290Z,5.41
2017-11-20T11:12:52.265Z,5.30
2017-11-20T11:13:52.251Z,5.33
2017-11-20T11:14:52.225Z,5.43
2017-11-20T11:15:52.208Z,5.39
2017-11-20T11:16:52.190Z,5.43
2017-11-20T11:17:52.163Z,5.44
2017-11-20T11:18:52.142Z,5.41
2017-11-20T11:19:52.115Z,5.47
2017-11-20T11:20:52.093Z,5.52
2017-11-20T11:21:52.085Z,5.51
2017-11-20T11:22:52.050Z,5.54
2017-11-20T11:23:52.036Z,5.44
2017-11-20T11:24:52.012Z,5.36
2017-11-20T11:25:51.989Z,5.33
2017-11-20T11:26:51.965Z,5.21
2017-11-20T11:27:51.943Z,5.18
2017-11-20T11:28:51.934Z,5.16
2017-11-20T11:29:51.902Z,5.21
2017-11-20T11:30:51.878Z,5.33
2017-11-20T11:31:51.862Z,5.41
2017-11-20T11:32:51.840Z,5.48
2017-11-20T11:33:51.815Z,5.39
2017-11-20T11:34:51.794Z,5.50
2017-11-20T11:35:51.777Z,5.50
2017-11-20T11:36:51.753Z,5.32
2017-11-20T11:37:51.726Z,5.32
2017-11-20T11:38:51.714Z,5.50
2017-11-20T11:39:51.685Z,5.32
2017-11-20T11:40:51.665Z,5.30
2017-11-20T11:41:51.641Z,5.27
2017-11-20T11:42:51.624Z,5.29
2017-11-20T11:43:51.604Z,5.25
2017-11-20T11:44:51.579Z,5.29
2017-11-20T11:45:51.555Z,5.19
2017-11-20T11:46:51.538Z,5.21
2017-11-20T11:47:51.515Z,5.16
2017-11-20T11:48:51.495Z,5.21
2017-11-20T11:49:51.477Z,5.16
2017-11-20T11:50:51.448Z,5.06
2017-11-20T11:51:51.431Z,5.22
2017-11-20T11:52:51.405Z,5.22
2017-11-20T11:53:51.382Z,5.21
2017-11-20T11:54:51.365Z,5.21
2017-11-20T11:55:51.343Z,5.30
2017-11-20T11:56:51.325Z,5.29
2017-11-20T11:57:51.297Z,5.25
2017-11-20T11:58:51.274Z,5.22
2017-11-20T11:59:51.257Z,5.34
2017-11-20T12:00:51.230Z,5.27
2017-11-20T12:01:51.215Z,5.44
2017-11-20T12:02:51.193Z,5.44
2017-11-20T12:03:51.171Z,5.50
2017-11-20T12:04:51.153Z,5.40
2017-11-20T12:05:51.127Z,5.47
2017-11-20T12:06:51.103Z,5.40
2017-11-20T12:07:51.083Z,5.44
2017-11-20T12:08:51.070Z,5.41
2017-11-20T12:09:51.043Z,5.34
2017-11-20T12:10:51.021Z,5.40
2017-11-20T12:11:50.996Z,5.30
2017-11-20T12:12:50.980Z,5.41
2017-11-20T12:13:50.953Z,5.27
2017-11-20T12:14:50.937Z,5.24
2017-11-20T12:15:50.909Z,5.16
2017-11-20T12:16:50.895Z,5.18
2017-11-20T12:17:50.865Z,5.27
2017-11-20T12:18:50.843Z,5.29
2017-11-20T12:19:50.825Z,5.34
2017-11-20T12:20:50.804Z,5.18
2017-11-20T12:21:50.783Z,5.25
2017-11-20T12:22:50.760Z,5.27
2017-11-20T12:23:50.732Z,5.15
2017-11-20T12:24:50.724Z,5.18
2017-11-20T12:25:50.697Z,5.18
2017-11-20T12:26:50.670Z,5.29
2017-11-20T12:27:50.652Z,5.34
2017-11-20T12:28:50.630Z,5.47
2017-11-20T12:29:50.605Z,5.43
2017-11-20T12:30:50.583Z,5.52
2017-11-20T12:31:50.565Z,5.34
2017-11-20T12:32:50.544Z,5.34
2017-11-20T12:33:50.516Z,5.40
2017-11-20T12:34:50.507Z,5.32
2017-11-20T12:35:50.477Z,5.32
2017-11-20T12:36:50.454Z,5.25
2017-11-20T12:37:50.433Z,5.16
2017-11-20T12:38:50.410Z,5.27
2017-11-20T12:39:50.393Z,5.16
2017-11-20T12:40:50.380Z,5.18
2017-11-20T12:41:50.347Z,5.15
2017-11-20T12:42:50.328Z,5.21
2017-11-20T12:43:50.305Z,5.24
2017-11-20T12:44:50.287Z,5.41
2017-11-20T12:45:50.261Z,5.21
2017-11-20T12:46:50.246Z,5.16
2017-11-20T12:47:50.222Z,5.18
2017-11-20T12:48:50.204Z,5.27
2017-11-20T12:49:50.171Z,5.36
2017-11-20T12:50:50.153Z,5.47
2017-11-20T12:51:50.129Z,5.48
2017-11-20T12:52:50.111Z,5.44
2017-11-20T12:53:50.093Z,5.41
2017-11-20T12:54:50.064Z,5.50
2017-11-20T12:55:50.044Z,5.41
2017-11-20T12:56:50.026Z,5.40
2017-11-20T12:57:50.003Z,5.29
2017-11-20T12:58:49.980Z,5.44
2017-11-20T12:59:49.956Z,5.40
2017-11-20T13:00:49.942Z,5.19
2017-11-20T13:01:49.917Z,5.25
2017-11-20T13:02:49.895Z,5.25
2017-11-20T13:03:49.879Z,5.43
2017-11-20T13:04:49.855Z,5.47
2017-11-20T13:05:49.842Z,5.47
2017-11-20T13:06:49.815Z,5.30
2017-11-20T13:07:49.787Z,5.33
2017-11-20T13:08:49.766Z,5.33
2017-11-20T13:09:49.745Z,5.29
2017-11-20T13:10:49.723Z,5.27
2017-11-20T13:11:49.704Z,5.34
2017-11-20T13:12:49.681Z,5.32
2017-11-20T13:13:49.669Z,5.24
2017-11-20T13:14:49.643Z,5.22
2017-11-20T13:15:49.614Z,5.15
2017-11-20T13:16:49.604Z,5.06
2017-11-20T13:17:49.573Z,5.14